Time;durP1;ratioP1;P1;durP2;ratioP2;P2;SDS_P1;SDS_P2;PMS_P1;PMS_P2;Temp;Humidity;BMP_temperature;BMP_pressure;BME280_temperature;BME280_humidity;BME280_pressure;Samples;Min_cycle;Max_cycle;Signal;HPM_P1;HPM_P2
2022/01/16 00:00:15;;;;;;;17.37;13.17;;;0.20;99.90;;;;;;5074140;28;20174;-63
2022/01/16 00:05:26;;;;;;;20.20;17.50;;;0.10;99.90;;;;;;5074134;28;20197;-64
2022/01/16 00:07:53;;;;;;;28.27;16.30;;;0.10;99.90;;;;;;5074126;28;20645;-64
2022/01/16 00:10:20;;;;;;;19.40;15.43;;;0.10;99.90;;;;;;5073854;28;20626;-64
2022/01/16 00:12:48;;;;;;;29.20;16.73;;;0.10;99.90;;;;;;5073349;28;20169;-63
2022/01/16 00:15:18;;;;;;;20.67;15.90;;;0.10;99.90;;;;;;5073949;28;20185;-63
2022/01/16 00:18:00;;;;;;;20.63;14.73;;;0.10;99.90;;;;;;5073823;28;20158;-63
2022/01/16 00:20:27;;;;;;;16.70;14.03;;;0.10;99.90;;;;;;5072254;28;20169;-63
2022/01/16 00:22:53;;;;;;;23.07;13.90;;;0.20;99.90;;;;;;5073649;28;20546;-63
2022/01/16 00:25:19;;;;;;;30.57;15.20;;;0.20;99.90;;;;;;5072141;28;20194;-63
2022/01/16 00:27:45;;;;;;;18.17;15.20;;;0.20;99.90;;;;;;5073622;28;20259;-64
2022/01/16 00:30:12;;;;;;;22.50;15.03;;;0.10;99.90;;;;;;5073810;28;20235;-64
2022/01/16 00:32:37;;;;;;;24.40;15.47;;;0.10;99.90;;;;;;5073424;28;20196;-63
2022/01/16 00:35:05;;;;;;;21.20;15.17;;;0.10;99.90;;;;;;5073571;28;20697;-66
2022/01/16 00:37:30;;;;;;;19.47;14.70;;;0.10;99.90;;;;;;5073567;28;20166;-66
2022/01/16 00:39:56;;;;;;;16.50;14.43;;;0.10;99.90;;;;;;5073513;28;20258;-66
2022/01/16 00:42:22;;;;;;;16.20;13.40;;;0.10;99.90;;;;;;5073900;28;20166;-66
2022/01/16 00:44:48;;;;;;;25.43;13.73;;;0.10;99.90;;;;;;5074011;28;20186;-66
2022/01/16 00:47:14;;;;;;;18.73;14.20;;;0.10;99.90;;;;;;5072262;28;20181;-66
2022/01/16 00:49:41;;;;;;;18.10;14.00;;;0.00;99.90;;;;;;5074809;28;20220;-66
2022/01/16 00:52:08;;;;;;;26.50;14.97;;;0.00;99.90;;;;;;5074731;28;20174;-66
2022/01/16 00:54:34;;;;;;;15.73;14.10;;;-0.10;99.90;;;;;;5074640;28;20740;-66
2022/01/16 00:57:00;;;;;;;22.77;15.43;;;-0.10;99.90;;;;;;5074024;28;20173;-65
2022/01/16 00:59:26;;;;;;;18.37;14.50;;;-0.10;99.90;;;;;;5074381;28;20198;-66
2022/01/16 01:01:51;;;;;;;17.60;13.60;;;-0.10;99.90;;;;;;5074312;28;20220;-66
2022/01/16 01:04:17;;;;;;;19.43;15.47;;;0.00;99.90;;;;;;5072477;28;20685;-65
2022/01/16 01:06:47;;;;;;;21.87;13.90;;;0.00;99.90;;;;;;5073658;28;20177;-66
2022/01/16 01:09:12;;;;;;;19.20;13.77;;;0.10;99.90;;;;;;5073555;28;20182;-66
2022/01/16 01:11:39;;;;;;;19.10;14.10;;;0.10;99.90;;;;;;5073374;28;20200;-66
2022/01/16 01:16:50;;;;;;;16.00;13.43;;;0.10;99.90;;;;;;5073095;28;20178;-66
2022/01/16 01:19:25;;;;;;;16.40;13.70;;;0.10;99.90;;;;;;5071843;28;20205;-66
2022/01/16 01:21:51;;;;;;;17.87;14.73;;;0.10;99.90;;;;;;5073397;28;20181;-66
2022/01/16 01:24:17;;;;;;;20.07;14.97;;;0.00;99.90;;;;;;5074452;28;20170;-66
2022/01/16 01:26:52;;;;;;;21.47;15.37;;;-0.10;99.90;;;;;;5076898;28;20189;-66
2022/01/16 01:29:20;;;;;;;21.30;14.67;;;-0.10;99.90;;;;;;5076954;28;20185;-66
2022/01/16 01:31:46;;;;;;;19.00;15.27;;;-0.20;99.90;;;;;;5076929;28;20268;-66
2022/01/16 01:34:11;;;;;;;17.50;14.50;;;-0.30;99.90;;;;;;5076625;28;20196;-66
2022/01/16 01:36:38;;;;;;;24.00;15.87;;;-0.30;99.90;;;;;;5075458;28;20211;-66
2022/01/16 01:39:05;;;;;;;29.73;15.70;;;-0.40;99.90;;;;;;5076743;28;20258;-66
2022/01/16 01:41:30;;;;;;;21.33;15.50;;;-0.50;99.90;;;;;;5076639;28;20174;-66
2022/01/16 01:52:09;;;;;;;17.43;14.93;;;-0.50;99.90;;;;;;5076685;28;20169;-66
2022/01/16 01:54:35;;;;;;;20.43;15.47;;;-0.50;99.90;;;;;;5076425;28;20201;-66
2022/01/16 01:57:02;;;;;;;23.20;14.87;;;-0.70;99.90;;;;;;5076505;28;20185;-66
2022/01/16 01:59:28;;;;;;;20.33;15.20;;;-0.80;99.90;;;;;;5074955;28;20205;-66
2022/01/16 02:01:54;;;;;;;18.47;14.43;;;-0.80;99.90;;;;;;5076178;28;20614;-67
2022/01/16 02:04:20;;;;;;;21.00;15.00;;;-0.80;99.90;;;;;;5076502;28;20247;-66
2022/01/16 02:06:46;;;;;;;17.33;15.10;;;-0.80;99.90;;;;;;5074617;28;20188;-66
2022/01/16 02:09:11;;;;;;;19.43;15.93;;;-0.70;99.90;;;;;;5074765;28;20706;-66
2022/01/16 02:11:38;;;;;;;20.93;16.43;;;-0.50;99.90;;;;;;5077633;28;20647;-66
2022/01/16 02:14:13;;;;;;;19.60;15.13;;;-0.40;99.90;;;;;;5076082;28;20280;-66
2022/01/16 02:30:59;;;;;;;21.50;15.03;;;0.20;99.90;;;;;;5076039;28;20290;-66
2022/01/16 02:34:29;;;;;;;24.00;16.40;;;0.30;99.90;;;;;;5075446;28;20177;-66
2022/01/16 02:36:13;;;;;;;23.60;17.33;;;0.30;99.90;;;;;;5074580;28;20197;-66
2022/01/16 02:38:39;;;;;;;20.03;15.93;;;0.40;99.90;;;;;;5074223;28;20201;-66
2022/01/16 02:41:05;;;;;;;22.17;15.67;;;0.40;99.90;;;;;;5075646;28;20172;-66
2022/01/16 02:43:34;;;;;;;24.70;16.00;;;0.50;99.90;;;;;;5074075;28;20545;-66
2022/01/16 02:48:42;;;;;;;23.93;16.20;;;0.60;99.90;;;;;;5075922;28;20225;-66
2022/01/16 02:51:08;;;;;;;26.50;16.50;;;0.70;99.90;;;;;;5075263;28;20197;-66
2022/01/16 02:53:33;;;;;;;26.77;16.80;;;0.70;99.90;;;;;;5073826;28;20684;-66
2022/01/16 02:56:00;;;;;;;27.63;15.87;;;0.80;99.90;;;;;;5073750;28;20202;-66
2022/01/16 02:58:26;;;;;;;30.07;17.33;;;0.80;99.90;;;;;;5075047;28;20609;-66
2022/01/16 03:00:52;;;;;;;23.07;16.93;;;0.90;99.90;;;;;;5075289;28;20184;-67
2022/01/16 03:03:18;;;;;;;27.03;17.60;;;0.90;99.90;;;;;;5073762;28;20271;-65
2022/01/16 03:05:43;;;;;;;28.27;16.70;;;0.90;99.90;;;;;;5073676;28;20569;-66
2022/01/16 03:08:09;;;;;;;26.87;17.73;;;0.90;99.90;;;;;;5074956;28;20173;-66
2022/01/16 03:13:03;;;;;;;28.93;17.53;;;1.00;99.90;;;;;;5075050;28;20181;-66
2022/01/16 03:15:30;;;;;;;25.60;16.27;;;1.00;99.90;;;;;;5075193;28;20193;-66
2022/01/16 03:23:11;;;;;;;25.83;15.97;;;1.00;99.90;;;;;;5075196;28;20291;-66
2022/01/16 03:25:36;;;;;;;25.23;16.90;;;1.10;99.90;;;;;;5073152;28;20225;-66
2022/01/16 03:28:02;;;;;;;27.43;18.33;;;1.10;99.90;;;;;;5074421;28;20258;-66
2022/01/16 03:30:29;;;;;;;29.33;18.30;;;1.10;99.90;;;;;;5074490;28;20600;-66
2022/01/16 03:32:54;;;;;;;28.73;18.63;;;1.20;99.90;;;;;;5074389;28;20174;-66
2022/01/16 03:35:20;;;;;;;32.63;18.37;;;1.20;99.90;;;;;;5073027;28;20285;-66
2022/01/16 03:37:46;;;;;;;32.57;19.00;;;1.20;99.90;;;;;;5074227;28;20630;-66
2022/01/16 03:40:12;;;;;;;36.63;20.67;;;1.30;99.90;;;;;;5072719;28;20262;-66
2022/01/16 03:42:39;;;;;;;36.77;20.33;;;1.30;99.90;;;;;;5074294;28;20166;-66
2022/01/16 03:45:07;;;;;;;40.57;20.70;;;1.30;99.90;;;;;;5074480;28;20193;-66
2022/01/16 03:47:33;;;;;;;37.63;19.93;;;1.30;99.90;;;;;;5071965;28;20216;-66
2022/01/16 03:50:00;;;;;;;37.73;22.07;;;1.30;99.90;;;;;;5072860;28;20273;-66
2022/01/16 03:52:26;;;;;;;36.40;20.80;;;1.30;99.90;;;;;;5072920;28;20223;-66
2022/01/16 03:54:52;;;;;;;45.07;23.13;;;1.40;99.90;;;;;;5072614;28;20727;-66
2022/01/16 03:57:18;;;;;;;41.93;21.63;;;1.40;99.90;;;;;;5074102;28;20166;-66
2022/01/16 03:59:44;;;;;;;40.77;22.87;;;1.40;99.90;;;;;;5073905;28;20680;-66
2022/01/16 04:02:09;;;;;;;41.03;22.97;;;1.40;99.90;;;;;;5074314;28;20618;-66
2022/01/16 04:04:35;;;;;;;40.53;22.30;;;1.40;99.90;;;;;;5074171;28;20186;-66
2022/01/16 04:07:01;;;;;;;39.17;22.27;;;1.40;99.90;;;;;;5074259;28;20212;-66
2022/01/16 04:09:28;;;;;;;42.63;22.90;;;1.40;99.90;;;;;;5073879;28;20174;-66
2022/01/16 04:11:56;;;;;;;43.27;22.63;;;1.40;99.90;;;;;;5073851;28;20545;-67
2022/01/16 04:17:15;;;;;;;47.43;23.17;;;1.40;99.90;;;;;;5062542;28;20196;-66
2022/01/16 04:19:41;;;;;;;42.93;23.43;;;1.40;99.90;;;;;;5073777;28;20190;-66
2022/01/16 04:22:07;;;;;;;49.87;25.40;;;1.40;99.90;;;;;;5072371;28;20268;-65
2022/01/16 04:24:33;;;;;;;47.93;22.33;;;1.40;99.90;;;;;;5073547;28;20280;-66
2022/01/16 04:26:59;;;;;;;40.67;22.80;;;1.40;99.90;;;;;;5073593;28;20665;-66
2022/01/16 04:29:25;;;;;;;39.90;21.57;;;1.40;99.90;;;;;;5073830;28;20260;-66
2022/01/16 04:31:51;;;;;;;47.40;25.07;;;1.40;99.90;;;;;;5073595;28;20635;-66
2022/01/16 04:34:17;;;;;;;39.13;21.93;;;1.40;99.90;;;;;;5073730;28;20630;-66
2022/01/16 04:36:42;;;;;;;47.33;23.53;;;1.50;99.90;;;;;;5073451;28;20182;-67
2022/01/16 04:39:14;;;;;;;40.33;22.03;;;1.50;99.90;;;;;;5073364;28;20208;-66
2022/01/16 04:44:24;;;;;;;42.67;22.43;;;1.50;99.90;;;;;;5073886;28;20254;-66
2022/01/16 04:46:50;;;;;;;40.60;21.77;;;1.50;99.90;;;;;;5073402;28;20227;-66
2022/01/16 04:49:16;;;;;;;51.17;25.50;;;1.50;99.90;;;;;;5072093;28;20600;-66
2022/01/16 04:51:42;;;;;;;43.30;23.10;;;1.50;99.90;;;;;;5073247;28;20174;-66
2022/01/16 04:54:08;;;;;;;44.77;24.10;;;1.50;99.90;;;;;;5073041;28;20575;-66
2022/01/16 04:56:34;;;;;;;41.67;22.87;;;1.50;99.90;;;;;;5073850;28;20538;-66
2022/01/16 04:59:00;;;;;;;41.50;22.53;;;1.50;99.90;;;;;;5074101;28;20204;-66
2022/01/16 05:01:26;;;;;;;43.40;23.53;;;1.50;99.90;;;;;;5077488;28;20579;-66
2022/01/16 05:03:52;;;;;;;46.90;24.47;;;1.60;99.90;;;;;;5077460;28;20215;-67
2022/01/16 05:06:18;;;;;;;49.33;24.30;;;1.50;99.90;;;;;;5077353;28;20190;-66
2022/01/16 05:08:44;;;;;;;43.27;23.43;;;1.50;99.90;;;;;;5077790;28;20216;-64
2022/01/16 05:11:11;;;;;;;44.13;23.70;;;1.60;99.90;;;;;;5077662;28;20563;-66
2022/01/16 05:18:50;;;;;;;49.60;26.00;;;1.50;99.90;;;;;;5077275;28;20613;-66
2022/01/16 05:21:17;;;;;;;51.73;26.87;;;1.60;99.90;;;;;;5076598;28;20196;-66
2022/01/16 05:23:43;;;;;;;50.80;25.77;;;1.60;99.90;;;;;;5075796;28;20170;-66
2022/01/16 05:26:10;;;;;;;47.10;26.00;;;1.60;99.90;;;;;;5078172;28;20220;-66
2022/01/16 05:28:36;;;;;;;49.13;24.90;;;1.60;99.90;;;;;;5077452;28;20174;-66
2022/01/16 05:31:02;;;;;;;50.53;26.13;;;1.70;99.90;;;;;;5077148;28;20180;-67
2022/01/16 05:33:28;;;;;;;45.27;25.60;;;1.70;99.90;;;;;;5077158;28;20178;-66
2022/01/16 05:35:54;;;;;;;46.83;26.10;;;1.70;99.90;;;;;;5076972;28;20200;-66
2022/01/16 05:38:20;;;;;;;55.47;26.70;;;1.70;99.90;;;;;;5077153;28;20637;-66
2022/01/16 05:40:46;;;;;;;53.10;27.20;;;1.70;99.90;;;;;;5077012;28;20172;-66
2022/01/16 05:43:12;;;;;;;53.47;28.20;;;1.70;99.90;;;;;;5076648;28;20200;-66
2022/01/16 05:45:38;;;;;;;55.77;28.67;;;1.70;99.90;;;;;;5076697;28;20554;-66
2022/01/16 05:48:04;;;;;;;55.03;27.43;;;1.70;99.90;;;;;;5076722;28;20693;-66
2022/01/16 05:50:31;;;;;;;54.87;27.57;;;1.80;99.90;;;;;;5076835;28;20239;-66
2022/01/16 05:52:58;;;;;;;52.23;26.40;;;1.80;99.90;;;;;;5076614;28;20165;-66
2022/01/16 05:55:27;;;;;;;58.13;28.50;;;1.80;99.90;;;;;;5076594;28;20287;-66
2022/01/16 05:57:53;;;;;;;55.53;28.17;;;1.80;99.90;;;;;;5076427;28;20193;-66
2022/01/16 06:00:18;;;;;;;55.57;30.50;;;1.80;99.90;;;;;;5076205;28;20647;-66
2022/01/16 06:02:44;;;;;;;61.23;31.07;;;1.80;99.90;;;;;;5076631;28;20174;-66
2022/01/16 06:05:12;;;;;;;58.00;29.43;;;1.90;99.90;;;;;;5076132;28;20190;-66
2022/01/16 06:07:40;;;;;;;61.90;30.90;;;1.90;99.90;;;;;;5074653;28;20223;-66
2022/01/16 06:10:07;;;;;;;61.20;30.83;;;1.90;99.90;;;;;;5074028;28;20185;-66
2022/01/16 06:12:32;;;;;;;55.23;31.83;;;1.90;99.90;;;;;;5075807;28;20538;-66
2022/01/16 06:15:00;;;;;;;66.07;32.20;;;1.90;99.90;;;;;;5075990;28;20280;-66
2022/01/16 06:17:26;;;;;;;68.73;34.77;;;1.90;99.90;;;;;;5074530;28;20182;-66
2022/01/16 06:19:51;;;;;;;69.43;32.83;;;1.90;99.90;;;;;;5075822;28;20247;-66
2022/01/16 06:22:17;;;;;;;70.27;32.10;;;1.90;99.90;;;;;;5076363;28;20530;-66
2022/01/16 06:24:43;;;;;;;65.43;33.13;;;1.90;99.90;;;;;;5075568;28;20197;-66
2022/01/16 06:27:08;;;;;;;64.23;33.90;;;2.00;99.90;;;;;;5075547;28;20185;-66
2022/01/16 06:29:34;;;;;;;68.10;33.33;;;2.00;99.90;;;;;;5074297;28;20185;-66
2022/01/16 06:32:01;;;;;;;66.67;33.97;;;2.00;99.90;;;;;;5075454;28;20208;-66
2022/01/16 06:34:27;;;;;;;69.97;35.23;;;2.00;99.90;;;;;;5075657;28;20272;-66
2022/01/16 06:36:53;;;;;;;73.17;34.90;;;2.00;99.90;;;;;;5075339;28;20623;-66
2022/01/16 06:39:19;;;;;;;70.00;34.73;;;2.10;99.90;;;;;;5073967;28;20209;-66
2022/01/16 06:41:44;;;;;;;75.07;35.37;;;2.10;99.90;;;;;;5075391;28;20166;-66
2022/01/16 06:44:10;;;;;;;72.10;36.03;;;2.00;99.90;;;;;;5075269;28;20247;-66
2022/01/16 06:46:36;;;;;;;79.80;37.53;;;2.00;99.90;;;;;;5075843;28;20644;-66
2022/01/16 06:49:02;;;;;;;72.37;34.83;;;2.10;99.90;;;;;;5075356;28;20166;-66
2022/01/16 06:51:28;;;;;;;84.50;39.60;;;2.10;99.90;;;;;;5075498;28;20202;-66
2022/01/16 06:53:55;;;;;;;77.33;38.33;;;2.10;99.90;;;;;;5073836;28;20213;-66
2022/01/16 06:56:21;;;;;;;75.23;40.73;;;2.10;99.90;;;;;;5075157;28;20285;-66
2022/01/16 06:58:47;;;;;;;84.07;41.20;;;2.10;99.90;;;;;;5073935;28;20586;-66
2022/01/16 07:01:16;;;;;;;85.70;40.90;;;2.20;99.90;;;;;;5075330;28;20181;-66
2022/01/16 07:03:41;;;;;;;85.87;38.10;;;2.20;99.90;;;;;;5074250;28;20642;-66
2022/01/16 07:06:07;;;;;;;94.03;42.57;;;2.20;99.90;;;;;;5075440;28;20198;-66
2022/01/16 07:08:33;;;;;;;82.03;38.83;;;2.20;99.90;;;;;;5075299;28;20303;-66
2022/01/16 07:11:00;;;;;;;87.30;42.27;;;2.20;99.90;;;;;;5073607;28;20181;-66
2022/01/16 07:13:28;;;;;;;89.30;42.73;;;2.20;99.90;;;;;;5073657;28;20169;-63
2022/01/16 07:15:54;;;;;;;90.90;42.07;;;2.30;99.90;;;;;;5073529;28;20205;-62
2022/01/16 07:18:21;;;;;;;83.20;43.70;;;2.30;99.90;;;;;;5074917;28;20189;-63
2022/01/16 07:20:47;;;;;;;96.10;44.03;;;2.30;99.90;;;;;;5074616;28;20173;-63
2022/01/16 07:23:14;;;;;;;86.47;41.23;;;2.30;99.90;;;;;;5073168;28;20642;-62
2022/01/16 07:25:41;;;;;;;87.53;44.23;;;2.30;99.90;;;;;;5073644;28;20217;-62
2022/01/16 07:28:07;;;;;;;89.23;43.10;;;2.30;99.90;;;;;;5074955;28;20261;-62
2022/01/16 07:30:33;;;;;;;94.70;43.10;;;2.30;99.90;;;;;;5074913;28;20220;-62
2022/01/16 07:32:59;;;;;;;94.70;45.60;;;2.30;99.90;;;;;;5075004;28;20170;-62
2022/01/16 07:35:25;;;;;;;96.13;46.40;;;2.30;99.90;;;;;;5074475;28;20614;-62
2022/01/16 07:37:52;;;;;;;91.27;42.30;;;2.30;99.90;;;;;;5074850;28;20177;-63
2022/01/16 07:40:20;;;;;;;84.50;43.37;;;2.40;99.90;;;;;;5072879;28;20201;-63
2022/01/16 07:42:46;;;;;;;93.37;42.67;;;2.40;99.90;;;;;;5074248;28;20166;-63
2022/01/16 07:45:12;;;;;;;92.80;40.77;;;2.40;99.90;;;;;;5074310;28;20189;-63
2022/01/16 07:47:38;;;;;;;87.70;41.93;;;2.40;99.90;;;;;;5074774;28;20534;-62
2022/01/16 07:50:05;;;;;;;94.23;45.70;;;2.40;99.90;;;;;;5074388;28;20580;-63
2022/01/16 07:52:30;;;;;;;91.40;43.53;;;2.40;99.90;;;;;;5072860;28;20261;-63
2022/01/16 07:54:56;;;;;;;97.70;45.03;;;2.40;99.90;;;;;;5074009;28;20650;-63
2022/01/16 07:57:22;;;;;;;107.20;47.17;;;2.40;99.90;;;;;;5074561;28;20197;-63
2022/01/16 07:59:48;;;;;;;95.40;44.13;;;2.50;99.90;;;;;;5073813;28;20204;-63
2022/01/16 08:02:13;;;;;;;97.17;44.10;;;2.50;99.90;;;;;;5073761;28;20182;-64
2022/01/16 08:04:39;;;;;;;92.43;43.83;;;2.50;99.90;;;;;;5073764;28;20193;-63
2022/01/16 08:07:09;;;;;;;93.70;43.37;;;2.50;99.90;;;;;;5072591;28;20239;-63
2022/01/16 08:09:36;;;;;;;95.07;44.07;;;2.50;99.90;;;;;;5073397;28;20178;-63
2022/01/16 08:12:02;;;;;;;94.47;43.67;;;2.50;99.90;;;;;;5074045;28;20488;-63
2022/01/16 08:14:28;;;;;;;93.30;43.60;;;2.50;99.90;;;;;;5073730;28;20571;-63
2022/01/16 08:16:56;;;;;;;99.80;43.60;;;2.50;99.90;;;;;;5072436;28;20185;-64
2022/01/16 08:19:22;;;;;;;93.37;45.27;;;2.60;99.90;;;;;;5073534;28;20193;-63
2022/01/16 08:21:48;;;;;;;97.30;47.43;;;2.60;99.90;;;;;;5073550;28;20161;-63
2022/01/16 08:24:14;;;;;;;102.70;47.13;;;2.60;99.90;;;;;;5073490;28;20248;-63
2022/01/16 08:26:40;;;;;;;88.10;42.07;;;2.70;99.90;;;;;;5073501;28;20620;-63
2022/01/16 08:29:06;;;;;;;93.47;44.43;;;2.70;99.90;;;;;;5073553;28;20260;-63
2022/01/16 08:31:31;;;;;;;87.80;42.90;;;2.70;99.90;;;;;;5073601;28;20256;-63
2022/01/16 08:33:57;;;;;;;99.33;44.50;;;2.70;99.90;;;;;;5071501;28;20180;-63
2022/01/16 08:36:23;;;;;;;92.83;46.63;;;2.70;99.90;;;;;;5073515;28;20614;-63
2022/01/16 08:38:49;;;;;;;100.57;49.00;;;2.80;99.90;;;;;;5072132;28;20631;-64
2022/01/16 08:41:15;;;;;;;89.83;46.57;;;2.80;99.90;;;;;;5073708;28;20611;-64
2022/01/16 08:43:41;;;;;;;99.57;47.73;;;2.80;99.90;;;;;;5073590;28;20186;-64
2022/01/16 08:46:06;;;;;;;92.97;46.60;;;2.80;99.90;;;;;;5073307;28;20190;-64
2022/01/16 08:48:32;;;;;;;92.50;46.53;;;2.90;99.90;;;;;;5073275;28;20178;-63
2022/01/16 08:50:58;;;;;;;93.70;47.17;;;2.90;99.90;;;;;;5073515;28;20256;-64
2022/01/16 08:53:24;;;;;;;97.57;44.63;;;2.90;99.90;;;;;;5073457;28;20173;-65
2022/01/16 08:55:50;;;;;;;88.23;45.20;;;2.90;99.90;;;;;;5073462;28;20731;-66
2022/01/16 08:58:16;;;;;;;90.40;45.90;;;2.90;99.90;;;;;;5073322;28;20231;-66
2022/01/16 09:00:43;;;;;;;96.17;45.50;;;2.90;99.90;;;;;;5071873;28;20256;-66
2022/01/16 09:03:09;;;;;;;100.40;46.37;;;3.00;99.90;;;;;;5072073;28;20551;-66
2022/01/16 09:05:35;;;;;;;90.73;46.40;;;3.00;99.90;;;;;;5072118;28;20196;-65
2022/01/16 09:08:01;;;;;;;95.67;47.07;;;3.00;99.90;;;;;;5073051;28;20174;-65
2022/01/16 09:10:27;;;;;;;93.83;48.10;;;3.00;99.90;;;;;;5071801;28;20178;-65
2022/01/16 09:12:53;;;;;;;100.10;47.67;;;3.00;99.90;;;;;;5073067;28;20265;-64
2022/01/16 09:15:20;;;;;;;101.40;48.60;;;3.00;99.90;;;;;;5072319;28;20201;-65
2022/01/16 09:17:46;;;;;;;95.97;47.77;;;3.00;99.90;;;;;;5073635;28;20233;-66
2022/01/16 09:20:15;;;;;;;93.63;47.93;;;3.00;99.90;;;;;;5071970;28;20205;-65
2022/01/16 09:22:46;;;;;;;92.17;48.10;;;3.00;99.90;;;;;;5073385;28;20253;-65
2022/01/16 09:25:13;;;;;;;90.00;44.87;;;3.10;99.90;;;;;;5071830;28;20217;-66
2022/01/16 09:27:39;;;;;;;99.07;48.57;;;3.10;99.90;;;;;;5071720;28;20190;-66
2022/01/16 09:30:07;;;;;;;95.50;48.23;;;3.20;99.90;;;;;;5073425;28;20167;-66
2022/01/16 09:32:35;;;;;;;95.63;46.43;;;3.20;99.90;;;;;;5072765;28;20184;-66
2022/01/16 09:35:05;;;;;;;89.47;46.93;;;3.20;99.90;;;;;;5072711;28;20650;-66
2022/01/16 09:37:31;;;;;;;91.70;47.37;;;3.30;99.90;;;;;;5071600;28;20185;-66
2022/01/16 09:39:58;;;;;;;91.57;45.90;;;3.30;99.90;;;;;;5072659;28;20563;-72
2022/01/16 09:42:26;;;;;;;87.33;46.43;;;3.30;99.90;;;;;;5071912;28;20170;-70
2022/01/16 09:44:53;;;;;;;87.87;46.43;;;3.40;99.90;;;;;;5073850;28;20198;-67
2022/01/16 09:47:18;;;;;;;93.73;45.70;;;3.40;99.90;;;;;;5075186;28;20166;-66
2022/01/16 09:49:46;;;;;;;84.07;45.83;;;3.40;99.90;;;;;;5076729;28;20200;-65
2022/01/16 09:52:12;;;;;;;89.83;46.40;;;3.40;99.90;;;;;;5076507;28;20174;-66
2022/01/16 09:54:39;;;;;;;82.23;43.80;;;3.50;99.90;;;;;;5076625;28;20193;-66
2022/01/16 09:57:06;;;;;;;84.63;43.77;;;3.50;99.90;;;;;;5075008;28;20207;-66
2022/01/16 09:59:33;;;;;;;82.73;42.83;;;3.60;99.90;;;;;;5076316;28;20247;-63
2022/01/16 10:02:05;;;;;;;78.97;43.73;;;3.60;99.90;;;;;;5076154;28;20166;-63
2022/01/16 10:04:42;;;;;;;78.23;42.63;;;3.70;99.90;;;;;;5075064;28;20550;-63
2022/01/16 10:07:15;;;;;;;79.60;40.20;;;3.70;99.90;;;;;;5074930;28;20541;-63
2022/01/16 10:09:43;;;;;;;84.57;43.70;;;3.70;99.90;;;;;;5076123;28;20245;-64
2022/01/16 10:12:17;;;;;;;74.13;42.43;;;3.70;99.90;;;;;;5076023;28;20181;-64
2022/01/16 10:14:49;;;;;;;81.23;41.57;;;3.80;99.90;;;;;;5076140;28;20228;-64
2022/01/16 10:17:20;;;;;;;71.63;39.57;;;3.80;99.90;;;;;;5076227;28;20237;-64
2022/01/16 10:19:59;;;;;;;75.37;41.73;;;3.80;99.90;;;;;;5076053;28;20205;-64
2022/01/16 10:22:43;;;;;;;71.83;39.43;;;3.80;99.90;;;;;;5076239;28;20493;-64
2022/01/16 10:25:12;;;;;;;72.27;39.63;;;3.80;99.90;;;;;;5074601;28;20189;-63
2022/01/16 10:27:39;;;;;;;82.87;41.63;;;3.80;99.90;;;;;;5075749;28;20190;-66
2022/01/16 10:30:08;;;;;;;75.20;39.67;;;3.90;99.90;;;;;;5076040;28;20216;-66
2022/01/16 10:32:42;;;;;;;67.77;38.80;;;3.90;99.90;;;;;;5074485;28;20223;-66
2022/01/16 10:35:09;;;;;;;68.70;38.90;;;3.90;99.90;;;;;;5074383;28;20209;-66
2022/01/16 10:37:35;;;;;;;67.37;38.17;;;4.00;99.90;;;;;;5076019;28;20173;-65
2022/01/16 10:40:09;;;;;;;61.70;35.07;;;4.00;99.90;;;;;;5075889;28;20647;-65
2022/01/16 10:42:36;;;;;;;66.60;37.00;;;4.10;99.90;;;;;;5075929;28;20241;-65
2022/01/16 10:45:12;;;;;;;56.20;33.33;;;4.10;99.90;;;;;;5074287;28;20729;-66
2022/01/16 10:47:42;;;;;;;62.10;35.53;;;4.20;99.90;;;;;;5075362;28;20174;-65
2022/01/16 10:50:12;;;;;;;60.60;36.53;;;4.30;99.90;;;;;;5074187;28;20178;-64
2022/01/16 10:53:17;;;;;;;60.53;34.27;;;4.30;99.90;;;;;;5075552;28;20639;-63
2022/01/16 10:55:54;;;;;;;64.33;33.93;;;4.30;99.90;;;;;;5073115;28;20210;-64
2022/01/16 10:58:24;;;;;;;59.00;34.13;;;4.30;99.90;;;;;;5072480;28;20178;-63
2022/01/16 11:01:00;;;;;;;48.50;31.60;;;4.30;99.90;;;;;;5074492;28;20186;-64
2022/01/16 11:03:27;;;;;;;59.43;34.77;;;4.30;99.90;;;;;;5075427;28;20188;-64
2022/01/16 11:05:54;;;;;;;52.63;31.33;;;4.30;99.90;;;;;;5075547;28;20339;-64
2022/01/16 11:08:25;;;;;;;50.20;31.37;;;4.40;99.90;;;;;;5074057;28;20162;-64
2022/01/16 11:10:56;;;;;;;56.43;32.43;;;4.40;99.90;;;;;;5075391;28;20158;-63
2022/01/16 11:13:29;;;;;;;56.10;31.30;;;4.40;99.90;;;;;;5075172;28;20653;-64
2022/01/16 11:15:58;;;;;;;57.20;32.20;;;4.40;99.90;;;;;;5075372;28;20684;-64
2022/01/16 11:18:26;;;;;;;56.40;32.30;;;4.40;99.90;;;;;;5075564;28;20575;-66
2022/01/16 11:23:44;;;;;;;53.93;31.23;;;4.50;99.90;;;;;;5074929;28;20291;-65
2022/01/16 11:26:11;;;;;;;48.07;30.50;;;4.50;99.90;;;;;;5073441;28;20213;-66
2022/01/16 11:28:38;;;;;;;61.33;33.67;;;4.50;99.90;;;;;;5075259;28;20162;-65
2022/01/16 11:31:09;;;;;;;52.47;31.03;;;4.50;99.90;;;;;;5075319;28;20154;-66
2022/01/16 11:33:36;;;;;;;58.77;31.33;;;4.50;99.90;;;;;;5075023;28;20209;-65
2022/01/16 11:36:12;;;;;;;57.10;31.47;;;4.50;99.90;;;;;;5073188;28;20666;-65
2022/01/16 11:38:46;;;;;;;53.13;31.20;;;4.50;99.90;;;;;;5074786;28;20243;-65
2022/01/16 11:41:18;;;;;;;47.53;29.47;;;4.60;99.90;;;;;;5073153;28;20170;-66
2022/01/16 11:43:49;;;;;;;54.70;29.90;;;4.60;99.90;;;;;;5074595;28;20268;-63
2022/01/16 11:46:18;;;;;;;49.53;29.83;;;4.60;99.90;;;;;;5072870;28;20737;-64
2022/01/16 11:49:02;;;;;;;50.30;29.60;;;4.70;99.90;;;;;;5074568;28;20182;-64
2022/01/16 11:51:38;;;;;;;49.50;30.30;;;4.70;99.90;;;;;;5075130;28;20208;-67
2022/01/16 11:54:19;;;;;;;53.43;30.90;;;4.70;99.90;;;;;;5072984;28;20169;-67
2022/01/16 11:56:45;;;;;;;51.40;30.10;;;4.70;99.90;;;;;;5074675;28;20173;-66
2022/01/16 11:59:25;;;;;;;53.93;30.77;;;4.70;99.90;;;;;;5073235;28;20742;-66
2022/01/16 12:01:54;;;;;;;46.37;28.73;;;4.80;99.90;;;;;;5074495;28;20150;-66
2022/01/16 12:04:32;;;;;;;51.13;30.33;;;4.80;99.90;;;;;;5072851;28;20590;-65
2022/01/16 12:07:13;;;;;;;51.20;29.63;;;4.80;99.90;;;;;;5072622;28;20585;-64
2022/01/16 12:12:17;;;;;;;50.03;29.00;;;4.80;99.90;;;;;;5074820;28;20307;-64
2022/01/16 12:15:05;;;;;;;51.93;30.33;;;4.80;99.90;;;;;;5075046;28;20240;-67
2022/01/16 12:17:44;;;;;;;50.57;30.23;;;4.90;99.90;;;;;;5072655;28;20235;-67
2022/01/16 12:20:13;;;;;;;50.50;29.60;;;4.90;99.90;;;;;;5074618;28;20185;-66
2022/01/16 12:22:46;;;;;;;50.27;30.67;;;4.90;99.90;;;;;;5072752;28;20205;-66
2022/01/16 12:25:43;;;;;;;51.67;30.97;;;4.90;99.90;;;;;;5074022;28;20192;-69
2022/01/16 12:28:10;;;;;;;52.03;30.17;;;5.00;99.90;;;;;;5076866;28;20188;-65
2022/01/16 12:30:38;;;;;;;49.47;29.13;;;5.00;99.90;;;;;;5073476;28;20223;-63
2022/01/16 12:33:33;;;;;;;55.57;29.10;;;5.00;99.90;;;;;;5074952;28;20525;-65
2022/01/16 12:36:12;;;;;;;54.17;30.37;;;5.10;99.90;;;;;;5070223;28;20237;-63
2022/01/16 12:39:00;;;;;;;57.77;31.83;;;5.10;99.90;;;;;;5073565;28;20272;-63
2022/01/16 12:41:31;;;;;;;54.40;31.13;;;5.10;99.90;;;;;;5073348;28;20165;-64
2022/01/16 12:44:05;;;;;;;52.77;30.23;;;5.10;99.90;;;;;;5073401;28;20200;-63
2022/01/16 12:46:45;;;;;;;52.43;29.57;;;5.10;99.90;;;;;;5073685;28;20190;-65
2022/01/16 12:49:18;;;;;;;52.60;31.27;;;5.10;99.90;;;;;;5073739;28;20172;-64
2022/01/16 12:51:47;;;;;;;59.30;30.90;;;5.10;99.90;;;;;;5073612;28;20169;-63
2022/01/16 12:54:20;;;;;;;54.23;30.87;;;5.10;99.90;;;;;;5073330;28;20173;-63
2022/01/16 12:57:00;;;;;;;54.83;30.37;;;5.10;99.90;;;;;;5072030;28;20180;-64
2022/01/16 12:59:30;;;;;;;61.70;32.37;;;5.10;99.90;;;;;;5073869;28;20186;-64
2022/01/16 13:01:58;;;;;;;57.63;32.07;;;5.10;99.90;;;;;;5072134;28;20174;-64
2022/01/16 13:04:36;;;;;;;57.70;31.60;;;5.10;99.90;;;;;;5074108;28;20642;-63
2022/01/16 13:07:09;;;;;;;56.27;31.53;;;5.10;99.90;;;;;;5073275;28;20219;-63
2022/01/16 13:09:36;;;;;;;58.03;31.30;;;5.10;99.90;;;;;;5074978;28;20170;-63
2022/01/16 13:12:03;;;;;;;61.03;31.90;;;5.10;99.90;;;;;;5074251;28;20638;-65
2022/01/16 13:14:36;;;;;;;50.07;30.13;;;5.10;99.90;;;;;;5072568;28;20201;-64
2022/01/16 13:17:08;;;;;;;56.73;30.37;;;5.10;99.90;;;;;;5073461;28;20219;-64
2022/01/16 13:19:56;;;;;;;54.53;31.10;;;5.00;99.90;;;;;;5073227;28;20225;-64
2022/01/16 13:22:24;;;;;;;55.23;31.13;;;5.00;99.90;;;;;;5077552;28;20170;-64
2022/01/16 13:24:59;;;;;;;57.07;30.80;;;5.00;99.90;;;;;;5075589;28;20289;-64
2022/01/16 13:27:39;;;;;;;52.27;29.13;;;5.00;99.90;;;;;;5076955;28;20195;-65
2022/01/16 13:30:13;;;;;;;53.50;29.60;;;5.00;99.90;;;;;;5077071;28;20480;-65
2022/01/16 13:32:42;;;;;;;52.23;29.33;;;5.00;99.90;;;;;;5077129;28;20185;-64
2022/01/16 13:35:22;;;;;;;51.43;27.87;;;5.00;99.90;;;;;;5076977;28;20681;-64